Burton, MI

10:31 AM EDT on August 30, 2015 (GMT -0400)
Dave Grand Blanc | | Change Station
CLOSE
Current Station
Personal Weather Station
Location: Grand Blanc, MI
Elevation: 797 ft
Nearby Weather Stations

Elev 797 ft 42.95 °N, 83.67 °W | Updated 2 seconds ago

Overcast
Overcast
72.2 °F
Feels Like 70 °F
N
1.1
Wind Variable Wind from WSW
Gusts 2.5 mph

Today
High -- | Low -- °F
--% Chance of Precip.
Yesterday
High -- | Low -- °F
Precip. -- in
6:56 AM 8:13 PM
Full, 99% visible
Pressure 30.06 in
Visibility 5.0 miles
Clouds Mostly Cloudy 1900 ft
Overcast 5000 ft
Heat Index 70 °F
Dew Point 68 °F
Humidity 87%
Rainfall 0.05 in
Snow Depth Not available.
UV 1 out of 12
Pollen 9.60 out of 12
Air Quality Not available.
Flu Activity Not available.
METAR KFNT 301353Z 19004KT 5SM HZ BKN019 OVC050 23/19 A3007 RMK AO2 SLP180 T02280194 $
Pressure 30.06 in
Visibility 5.0 miles
Clouds Mostly Cloudy 1900 ft
Overcast 5000 ft
Heat Index 70 °F
Dew Point 68 °F
Humidity 87%
Rainfall 0.05 in
Snow Depth Not available.
UV 1 out of 12
Pollen 9.60 out of 12
Air Quality Not available.
Flu Activity Not available.
METAR KFNT 301353Z 19004KT 5SM HZ BKN019 OVC050 23/19 A3007 RMK AO2 SLP180 T02280194 $

10-Day Weather Forecast

×

Almanac

Astronomy

Aug. 30, 2015 Rise Set
Actual Time
Civil Twilight
Nautical Twilight
Astronomical Twilight
Moon
Length of Visible Light
Length of Day
Tomorrow will be .
, % of the Moon is Illuminated

Today's Extremes

State Highs State Lows

Community

WunderPhotos

Upload Photos

1,850,974 photos uploaded!

WunderBlogs® & News

Nearby

Air Quality

  Air Quality AQ Index Pollutant
Not available.

Snow Depth

Station Depth Elevation

Earthquake Activity

City Distance Mag. Time & Date
Minimum magnitude displayed is 2.5.

Coastal Water Temperatures

Place Temperature

Stations

Nearby Weather Stations

Station Location Temp. Windchill Dew Point Humidity Wind Precip. Elev Updated Type